createdAt,value
2022-08-31T00:02:09.791Z,98363.22
2022-08-31T00:04:36.861Z,98363.06
2022-08-31T00:07:04.180Z,98368.22
2022-08-31T00:09:32.928Z,98359.09
2022-08-31T00:12:00.369Z,98363.72
2022-08-31T00:14:27.189Z,98364.38
2022-08-31T00:16:53.911Z,98363.41
2022-08-31T00:19:20.643Z,98359.94
2022-08-31T00:21:47.476Z,98358.06
2022-08-31T00:24:14.580Z,98352.75
2022-08-31T00:26:42.188Z,98354.38
2022-08-31T00:29:09.506Z,98358.69
2022-08-31T00:31:36.429Z,98348.53
2022-08-31T00:34:03.982Z,98359.22
2022-08-31T00:36:30.711Z,98357.91
2022-08-31T00:38:57.945Z,98361.59
2022-08-31T00:41:27.887Z,98365.47
2022-08-31T00:44:03.718Z,98362.41
2022-08-31T00:46:32.944Z,98373.47
2022-08-31T00:49:04.590Z,98374.13
2022-08-31T00:51:34.172Z,98392.00
2022-08-31T00:54:00.972Z,98400.69
2022-08-31T00:56:27.817Z,98401.38
2022-08-31T00:58:55.114Z,98410.06
2022-08-31T01:01:22.752Z,98407.31
2022-08-31T01:03:49.989Z,98406.13
2022-08-31T01:06:17.557Z,98403.63
2022-08-31T01:08:45.483Z,98411.56
2022-08-31T01:11:13.377Z,98405.78
2022-08-31T01:13:40.556Z,98410.56
2022-08-31T01:16:11.235Z,98405.19
2022-08-31T01:18:39.015Z,98413.84
2022-08-31T01:21:13.909Z,98415.69
2022-08-31T01:23:43.565Z,98409.72
2022-08-31T01:26:15.397Z,98414.28
2022-08-31T01:28:42.166Z,98415.31
2022-08-31T01:31:33.109Z,98422.78
2022-08-31T01:34:01.313Z,98422.78
2022-08-31T01:36:28.520Z,98428.56
2022-08-31T01:38:56.357Z,98433.16
2022-08-31T01:41:23.438Z,98426.09
2022-08-31T01:43:50.795Z,98436.44
2022-08-31T01:46:17.533Z,98435.63
2022-08-31T01:48:45.629Z,98431.75
2022-08-31T01:51:14.200Z,98435.69
2022-08-31T01:53:45.281Z,98436.69
2022-08-31T01:56:14.410Z,98434.44
2022-08-31T01:58:41.431Z,98436.69
2022-08-31T02:01:38.783Z,98439.81
2022-08-31T02:04:06.920Z,98435.47
2022-08-31T02:06:34.204Z,98441.03
2022-08-31T02:09:07.035Z,98440.22
2022-08-31T02:11:33.782Z,98438.81
2022-08-31T02:14:00.633Z,98438.22
2022-08-31T02:16:27.661Z,98438.22
2022-08-31T02:18:54.516Z,98437.78
2022-08-31T02:21:21.344Z,98438.16
2022-08-31T02:23:48.182Z,98442.53
2022-08-31T02:26:15.489Z,98443.75
2022-08-31T02:28:45.519Z,98440.06
2022-08-31T02:31:12.579Z,98436.16
2022-08-31T02:33:46.901Z,98439.25
2022-08-31T02:36:13.689Z,98438.22
2022-08-31T02:38:41.895Z,98434.50
2022-08-31T02:41:09.807Z,98435.75
2022-08-31T02:43:38.901Z,98434.53
2022-08-31T02:46:05.774Z,98434.09
2022-08-31T02:48:38.568Z,98448.16
2022-08-31T02:51:07.820Z,98455.56
2022-08-31T02:53:35.084Z,98455.56
2022-08-31T02:56:02.072Z,98452.47
2022-08-31T02:58:29.355Z,98442.81
2022-08-31T03:00:56.198Z,98445.06
2022-08-31T03:03:23.449Z,98445.03
2022-08-31T03:05:50.475Z,98436.81
2022-08-31T03:08:17.913Z,98443.00
2022-08-31T03:10:47.484Z,98442.38
2022-08-31T03:13:14.501Z,98444.03
2022-08-31T03:15:43.030Z,98447.31
2022-08-31T03:18:10.371Z,98452.91
2022-08-31T03:20:37.152Z,98454.75
2022-08-31T03:23:05.323Z,98456.16
2022-08-31T03:25:32.681Z,98450.63
2022-08-31T03:27:59.805Z,98449.81
2022-08-31T03:30:31.402Z,98447.97
2022-08-31T03:33:03.111Z,98444.00
2022-08-31T03:35:32.077Z,98448.34
2022-08-31T03:37:58.986Z,98444.00
2022-08-31T03:40:25.753Z,98451.25
2022-08-31T03:42:53.051Z,98446.91
2022-08-31T03:45:20.252Z,98442.78
2022-08-31T03:47:47.390Z,98447.28
2022-08-31T03:50:16.280Z,98445.44
2022-08-31T03:52:57.231Z,98443.78
2022-08-31T03:55:23.985Z,98446.84
2022-08-31T03:57:51.570Z,98441.94
2022-08-31T04:00:18.983Z,98443.56
2022-08-31T04:02:52.893Z,98449.13
2022-08-31T04:05:35.678Z,98452.41
2022-08-31T04:08:14.756Z,98450.16
2022-08-31T04:11:00.043Z,98450.34
2022-08-31T04:13:33.101Z,98459.63
2022-08-31T04:16:20.909Z,98450.16
2022-08-31T04:19:11.581Z,98453.25
2022-08-31T04:21:47.694Z,98454.28
2022-08-31T04:24:14.457Z,98463.34
2022-08-31T04:26:41.736Z,98459.84
2022-08-31T04:29:13.093Z,98465.41
2022-08-31T04:31:40.628Z,98469.75
2022-08-31T04:34:08.267Z,98468.28
2022-08-31T04:36:35.714Z,98474.03
2022-08-31T04:39:03.871Z,98479.78
2022-08-31T04:41:32.352Z,98478.16
2022-08-31T04:44:00.737Z,98472.38
2022-08-31T04:46:27.941Z,98477.94
2022-08-31T04:48:55.916Z,98481.41
2022-08-31T04:51:25.987Z,98482.63
2022-08-31T04:53:53.118Z,98488.38
2022-08-31T04:56:40.925Z,98490.28
2022-08-31T04:59:09.282Z,98494.00
2022-08-31T05:01:45.406Z,98499.13
2022-08-31T05:04:36.585Z,98504.03
2022-08-31T05:07:03.859Z,98501.75
2022-08-31T05:09:31.099Z,98503.84
2022-08-31T05:11:57.927Z,98499.13
2022-08-31T05:14:25.854Z,98497.31
2022-08-31T05:17:01.359Z,98502.03
2022-08-31T05:19:32.110Z,98505.97
2022-08-31T05:21:59.240Z,98515.03
2022-08-31T05:24:26.327Z,98512.56
2022-08-31T05:26:56.380Z,98502.47
2022-08-31T05:29:25.131Z,98507.63
2022-08-31T05:32:03.985Z,98513.78
2022-08-31T05:34:31.843Z,98511.13
2022-08-31T05:36:58.672Z,98515.25
2022-08-31T05:39:30.863Z,98522.03
2022-08-31T05:41:57.609Z,98528.81
2022-08-31T05:44:26.094Z,98525.13
2022-08-31T05:46:57.398Z,98525.72
2022-08-31T05:49:27.909Z,98528.03
2022-08-31T05:51:56.550Z,98515.25
2022-08-31T05:54:23.444Z,98519.19
2022-08-31T05:56:50.160Z,98525.38
2022-08-31T05:59:16.958Z,98527.88
2022-08-31T06:01:44.590Z,98528.50
2022-08-31T06:04:14.851Z,98532.41
2022-08-31T06:06:43.529Z,98529.72
2022-08-31T06:09:13.245Z,98532.44
2022-08-31T06:11:42.365Z,98534.09
2022-08-31T06:14:12.504Z,98527.69
2022-08-31T06:16:40.111Z,98526.88
2022-08-31T06:19:07.896Z,98528.13
2022-08-31T06:21:49.793Z,98538.00
2022-08-31T06:24:20.641Z,98536.81
2022-08-31T06:26:58.389Z,98536.97
2022-08-31T06:29:31.698Z,98542.34
2022-08-31T06:32:00.500Z,98538.63
2022-08-31T06:34:29.370Z,98531.19
2022-08-31T06:37:05.747Z,98540.53
2022-08-31T06:39:53.864Z,98538.28
2022-08-31T06:42:40.877Z,98541.16
2022-08-31T06:45:27.931Z,98538.25
2022-08-31T06:48:03.541Z,98553.09
2022-08-31T06:50:30.309Z,98546.09
2022-08-31T06:52:58.358Z,98552.47
2022-08-31T06:55:46.027Z,98545.28
2022-08-31T06:58:31.595Z,98549.81
2022-08-31T07:01:35.734Z,98548.38
2022-08-31T07:04:11.611Z,98550.84
2022-08-31T07:06:42.750Z,98553.13
2022-08-31T07:09:13.728Z,98547.13
2022-08-31T07:11:44.769Z,98552.50
2022-08-31T07:14:14.980Z,98555.41
2022-08-31T07:16:43.424Z,98557.44
2022-08-31T07:19:11.919Z,98555.78
2022-08-31T07:21:45.234Z,98563.03
2022-08-31T07:24:14.718Z,98563.22
2022-08-31T07:26:46.695Z,98568.38
2022-08-31T07:29:18.304Z,98568.59
2022-08-31T07:31:48.499Z,98565.91
2022-08-31T07:34:27.215Z,98567.53
2022-08-31T07:37:32.983Z,98567.53
2022-08-31T07:40:18.662Z,98575.38
2022-08-31T07:42:47.083Z,98571.88
2022-08-31T07:45:23.187Z,98567.97
2022-08-31T07:47:53.224Z,98571.88
2022-08-31T07:50:22.736Z,98577.03
2022-08-31T07:53:08.668Z,98567.91
2022-08-31T07:55:56.866Z,98574.13
2022-08-31T07:58:31.225Z,98570.41
2022-08-31T08:01:00.549Z,98559.63
2022-08-31T08:03:30.092Z,98562.94
2022-08-31T08:06:17.659Z,98570.22
2022-08-31T08:09:24.005Z,98572.72
2022-08-31T08:12:25.251Z,98577.44
2022-08-31T08:15:06.644Z,98585.09
2022-08-31T08:17:52.231Z,98587.97
2022-08-31T08:20:35.358Z,98590.66
2022-08-31T08:23:11.491Z,98586.13
2022-08-31T08:26:09.607Z,98591.72
2022-08-31T08:29:18.877Z,98589.44
2022-08-31T08:31:53.056Z,98601.81
2022-08-31T08:34:21.860Z,98607.78
2022-08-31T08:36:58.369Z,98605.94
2022-08-31T08:39:25.127Z,98603.28
2022-08-31T08:42:12.576Z,98608.41
2022-08-31T08:44:40.334Z,98602.41
2022-08-31T08:47:15.242Z,98606.97
2022-08-31T08:49:54.216Z,98603.44
2022-08-31T08:52:44.435Z,98606.97
2022-08-31T08:55:18.368Z,98611.09
2022-08-31T08:57:49.588Z,98616.63
2022-08-31T09:00:20.068Z,98626.72
2022-08-31T09:03:01.255Z,98617.22
2022-08-31T09:06:08.044Z,98622.78
2022-08-31T09:08:54.835Z,98615.75
2022-08-31T09:11:53.260Z,98622.50
2022-08-31T09:14:24.578Z,98619.53
2022-08-31T09:17:01.856Z,98627.41
2022-08-31T09:19:28.826Z,98628.41
2022-08-31T09:21:58.084Z,98630.50
2022-08-31T09:24:30.377Z,98635.16
2022-08-31T09:27:20.319Z,98630.34
2022-08-31T09:29:56.058Z,98633.56
2022-08-31T09:32:29.134Z,98622.66
2022-08-31T09:35:01.814Z,98630.13
2022-08-31T09:37:45.078Z,98618.56
2022-08-31T09:40:23.829Z,98621.53
2022-08-31T09:43:05.005Z,98622.16
2022-08-31T09:45:38.739Z,98618.31
2022-08-31T09:48:09.227Z,98620.72
2022-08-31T09:50:46.317Z,98619.41
2022-08-31T09:53:34.685Z,98627.97
2022-08-31T09:56:16.870Z,98625.38
2022-08-31T09:58:49.130Z,98624.75
2022-08-31T10:01:23.341Z,98629.41
2022-08-31T10:03:50.495Z,98627.44
2022-08-31T10:06:26.167Z,98623.97
2022-08-31T10:09:02.809Z,98625.13
2022-08-31T10:11:31.620Z,98629.28
2022-08-31T10:14:06.319Z,98622.69
2022-08-31T10:16:35.672Z,98633.09
2022-08-31T10:19:06.624Z,98623.81
2022-08-31T10:21:53.561Z,98629.09
2022-08-31T10:24:34.683Z,98625.41
2022-08-31T10:27:18.904Z,98625.59
2022-08-31T10:29:53.066Z,98626.72
2022-08-31T10:32:45.281Z,98626.31
2022-08-31T10:35:22.937Z,98623.78
2022-08-31T10:38:08.217Z,98629.16
2022-08-31T10:41:12.521Z,98630.28
2022-08-31T10:44:06.303Z,98630.91
2022-08-31T10:46:35.660Z,98632.38
2022-08-31T10:49:04.525Z,98627.41
2022-08-31T10:51:53.249Z,98625.25
2022-08-31T10:54:41.225Z,98628.78
2022-08-31T10:57:31.427Z,98630.06
2022-08-31T11:00:37.928Z,98625.16
2022-08-31T11:03:07.493Z,98627.81
2022-08-31T11:05:37.980Z,98630.72
2022-08-31T11:08:12.342Z,98631.50
2022-08-31T11:10:49.164Z,98629.59
2022-08-31T11:13:36.296Z,98632.06
2022-08-31T11:16:21.340Z,98629.72
2022-08-31T11:18:52.006Z,98639.41
2022-08-31T11:21:45.575Z,98627.59
2022-08-31T11:25:01.060Z,98629.81
2022-08-31T11:27:37.051Z,98632.44
2022-08-31T11:30:16.466Z,98628.91
2022-08-31T11:32:52.533Z,98625.97
2022-08-31T11:36:05.477Z,98627.66
2022-08-31T11:39:01.810Z,98628.13
2022-08-31T11:41:31.351Z,98631.03
2022-08-31T11:43:58.476Z,98624.00
2022-08-31T11:46:28.754Z,98627.34
2022-08-31T11:48:55.484Z,98622.22
2022-08-31T11:51:46.233Z,98620.81
2022-08-31T11:54:56.671Z,98624.34
2022-08-31T11:57:36.914Z,98624.38
2022-08-31T12:00:18.881Z,98618.66
2022-08-31T12:02:45.865Z,98616.16
2022-08-31T12:05:13.062Z,98618.06
2022-08-31T12:07:45.042Z,98618.53
2022-08-31T12:10:27.809Z,98625.94
2022-08-31T12:13:09.462Z,98617.28
2022-08-31T12:16:15.060Z,98621.22
2022-08-31T12:18:57.947Z,98611.66
2022-08-31T12:21:53.337Z,98610.22
2022-08-31T12:24:49.261Z,98611.34
2022-08-31T12:27:44.187Z,98602.72
2022-08-31T12:30:18.934Z,98599.22
2022-08-31T12:32:46.581Z,98596.88
2022-08-31T12:35:28.261Z,98603.97
2022-08-31T12:38:19.133Z,98595.44
2022-08-31T12:40:51.581Z,98598.06
2022-08-31T12:43:22.041Z,98597.44
2022-08-31T12:45:58.571Z,98591.63
2022-08-31T12:48:47.168Z,98589.59
2022-08-31T12:51:35.547Z,98589.34
2022-08-31T12:54:17.642Z,98594.91
2022-08-31T12:56:57.850Z,98580.41
2022-08-31T12:59:59.822Z,98580.28
2022-08-31T13:02:28.166Z,98574.47
2022-08-31T13:04:55.018Z,98569.09
2022-08-31T13:07:28.910Z,98568.00
2022-08-31T13:10:29.517Z,98554.03
2022-08-31T13:13:00.768Z,98554.66
2022-08-31T13:15:36.174Z,98555.19
2022-08-31T13:18:14.651Z,98552.59
2022-08-31T13:20:44.220Z,98558.31
2022-08-31T13:23:22.272Z,98551.91
2022-08-31T13:26:25.923Z,98548.88
2022-08-31T13:29:00.524Z,98540.00
2022-08-31T13:31:30.707Z,98532.81
2022-08-31T13:34:03.022Z,98532.88
2022-08-31T13:36:40.428Z,98530.22
2022-08-31T13:39:24.284Z,98527.34
2022-08-31T13:42:10.836Z,98522.84
2022-08-31T13:44:45.061Z,98526.59
2022-08-31T13:47:21.436Z,98527.41
2022-08-31T13:49:49.203Z,98524.19
2022-08-31T13:52:36.340Z,98515.22
2022-08-31T13:55:13.428Z,98511.94
2022-08-31T13:57:41.744Z,98501.44
2022-08-31T14:00:32.989Z,98494.75
2022-08-31T14:03:29.776Z,98499.88
2022-08-31T14:05:58.969Z,98501.53
2022-08-31T14:08:28.384Z,98501.88
2022-08-31T14:10:55.919Z,98502.00
2022-08-31T14:13:27.972Z,98492.63
2022-08-31T14:15:56.718Z,98493.19
2022-08-31T14:18:55.384Z,98489.81
2022-08-31T14:21:29.055Z,98494.22
2022-08-31T14:24:04.694Z,98485.47
2022-08-31T14:26:37.136Z,98489.28
2022-08-31T14:29:12.470Z,98475.34
2022-08-31T14:31:52.926Z,98468.34
2022-08-31T14:34:35.784Z,98467.03
2022-08-31T14:37:06.948Z,98469.09
2022-08-31T14:39:38.325Z,98472.97
2022-08-31T14:42:07.896Z,98469.91
2022-08-31T14:44:42.475Z,98466.41
2022-08-31T14:47:09.860Z,98473.00
2022-08-31T14:49:37.069Z,98480.84
2022-08-31T14:52:06.434Z,98474.88
2022-08-31T14:54:37.481Z,98476.81
2022-08-31T14:57:31.335Z,98481.50
2022-08-31T15:00:02.171Z,98473.69
2022-08-31T15:02:33.615Z,98482.41
2022-08-31T15:05:06.422Z,98476.16
2022-08-31T15:07:35.712Z,98477.81
2022-08-31T15:10:04.224Z,98480.38
2022-08-31T15:12:30.913Z,98481.00
2022-08-31T15:15:00.503Z,98478.09
2022-08-31T15:17:29.672Z,98489.47
2022-08-31T15:19:57.514Z,98487.63
2022-08-31T15:22:26.364Z,98479.31
2022-08-31T15:24:54.191Z,98483.97
2022-08-31T15:27:22.517Z,98484.56
2022-08-31T15:29:51.830Z,98480.47
2022-08-31T15:32:18.686Z,98490.34
2022-08-31T15:34:57.820Z,98484.72
2022-08-31T15:37:31.735Z,98474.09
2022-08-31T15:40:02.085Z,98480.22
2022-08-31T15:42:31.492Z,98467.97
2022-08-31T15:44:58.369Z,98467.16
2022-08-31T15:47:51.676Z,98467.47
2022-08-31T15:50:20.305Z,98465.44
2022-08-31T15:52:51.692Z,98454.25
2022-08-31T15:55:21.853Z,98451.06
2022-08-31T15:57:48.793Z,98453.44
2022-08-31T16:00:15.992Z,98457.88
2022-08-31T16:02:43.961Z,98462.34
2022-08-31T16:05:11.982Z,98453.97
2022-08-31T16:07:39.796Z,98451.66
2022-08-31T16:10:16.703Z,98437.50
2022-08-31T16:12:46.226Z,98456.56
2022-08-31T16:15:15.683Z,98445.72
2022-08-31T16:17:42.666Z,98447.56
2022-08-31T16:20:12.135Z,98440.78
2022-08-31T16:22:39.260Z,98441.38
2022-08-31T16:25:07.093Z,98446.22
2022-08-31T16:27:34.235Z,98447.78
2022-08-31T16:30:01.127Z,98444.88
2022-08-31T16:32:27.991Z,98451.53
2022-08-31T16:34:56.659Z,98444.25
2022-08-31T16:37:24.001Z,98453.09
2022-08-31T16:39:50.895Z,98445.22
2022-08-31T16:42:18.126Z,98454.56
2022-08-31T16:44:46.921Z,98445.38
2022-08-31T16:47:16.784Z,98441.19
2022-08-31T16:49:44.228Z,98445.09
2022-08-31T16:52:18.248Z,98442.59
2022-08-31T16:54:51.164Z,98441.38
2022-08-31T16:57:20.923Z,98444.06
2022-08-31T16:59:48.893Z,98445.97
2022-08-31T17:02:16.906Z,98446.03
2022-08-31T17:04:53.364Z,98444.84
2022-08-31T17:07:21.830Z,98446.22
2022-08-31T17:09:49.214Z,98445.72
2022-08-31T17:12:19.486Z,98442.78
2022-08-31T17:14:51.498Z,98444.19
2022-08-31T17:17:23.261Z,98451.00
2022-08-31T17:19:52.278Z,98448.06
2022-08-31T17:22:25.796Z,98455.31
2022-08-31T17:24:57.849Z,98454.66
2022-08-31T17:27:25.974Z,98459.94
2022-08-31T17:29:55.386Z,98455.81
2022-08-31T17:32:24.765Z,98462.34
2022-08-31T17:34:54.610Z,98458.84
2022-08-31T17:37:26.631Z,98459.09
2022-08-31T17:39:54.074Z,98453.53
2022-08-31T17:42:22.501Z,98457.91
2022-08-31T17:44:53.171Z,98464.97
2022-08-31T17:47:22.185Z,98462.31
2022-08-31T17:49:51.164Z,98465.41
2022-08-31T17:52:20.732Z,98477.81
2022-08-31T17:54:47.745Z,98477.63
2022-08-31T17:57:15.848Z,98483.81
2022-08-31T17:59:46.712Z,98482.59
2022-08-31T18:02:16.874Z,98484.44
2022-08-31T18:04:43.874Z,98494.75
2022-08-31T18:07:11.238Z,98490.63
2022-08-31T18:09:42.862Z,98494.31
2022-08-31T18:12:10.016Z,98494.50
2022-08-31T18:14:38.546Z,98496.41
2022-08-31T18:17:08.837Z,98495.56
2022-08-31T18:19:36.705Z,98498.88
2022-08-31T18:22:03.939Z,98494.75
2022-08-31T18:24:36.627Z,98503.81
2022-08-31T18:27:04.599Z,98506.09
2022-08-31T18:29:34.309Z,98505.25
2022-08-31T18:32:04.381Z,98499.91
2022-08-31T18:34:39.148Z,98508.97
2022-08-31T18:37:06.698Z,98507.94
2022-08-31T18:39:59.690Z,98509.97
2022-08-31T18:42:46.783Z,98510.78
2022-08-31T18:45:16.951Z,98515.28
2022-08-31T18:48:13.480Z,98510.72
2022-08-31T18:50:37.259Z,98520.59
2022-08-31T18:53:08.118Z,98518.75
2022-08-31T18:55:41.067Z,98511.94
2022-08-31T18:58:07.912Z,98526.50
2022-08-31T19:00:34.850Z,98516.16
2022-08-31T19:03:02.665Z,98523.78
2022-08-31T19:05:31.641Z,98519.81
2022-08-31T19:08:00.628Z,98532.38
2022-08-31T19:10:28.178Z,98527.75
2022-08-31T19:12:56.025Z,98524.25
2022-08-31T19:15:25.431Z,98521.59
2022-08-31T19:18:01.997Z,98523.22
2022-08-31T19:20:29.365Z,98531.81
2022-08-31T19:22:56.434Z,98512.44
2022-08-31T19:25:23.485Z,98525.00
2022-08-31T19:27:52.085Z,98524.34
2022-08-31T19:30:25.996Z,98520.00
2022-08-31T19:32:56.357Z,98526.16
2022-08-31T19:35:25.912Z,98516.50
2022-08-31T19:37:53.845Z,98530.03
2022-08-31T19:40:21.437Z,98528.34
2022-08-31T19:45:44.971Z,98531.63
2022-08-31T19:48:12.500Z,98532.41
2022-08-31T19:50:42.369Z,98537.13
2022-08-31T19:53:12.736Z,98535.28
2022-08-31T19:55:53.624Z,98525.34
2022-08-31T19:58:26.634Z,98523.53
2022-08-31T20:01:00.807Z,98520.22
2022-08-31T20:03:28.408Z,98518.31
2022-08-31T20:05:55.761Z,98515.34
2022-08-31T20:08:22.532Z,98511.63
2022-08-31T20:10:49.530Z,98515.53
2022-08-31T20:13:16.345Z,98521.66
2022-08-31T20:15:44.813Z,98517.72
2022-08-31T20:18:12.898Z,98514.41
2022-08-31T20:20:45.325Z,98512.50
2022-08-31T20:23:17.127Z,98507.72
2022-08-31T20:25:45.969Z,98507.59
2022-08-31T20:28:13.393Z,98508.31
2022-08-31T20:30:41.476Z,98508.78
2022-08-31T20:33:09.773Z,98508.59
2022-08-31T20:35:41.630Z,98510.66
2022-08-31T20:38:13.304Z,98514.25
2022-08-31T20:40:41.632Z,98513.38
2022-08-31T20:43:10.874Z,98512.53
2022-08-31T20:45:38.814Z,98513.53
2022-08-31T20:48:24.700Z,98509.63
2022-08-31T20:50:51.435Z,98511.00
2022-08-31T20:53:24.840Z,98507.50
2022-08-31T20:56:06.980Z,98513.59
2022-08-31T20:58:33.706Z,98518.81
2022-08-31T21:01:05.524Z,98518.94
2022-08-31T21:03:32.196Z,98514.22
2022-08-31T21:06:08.771Z,98520.75
2022-08-31T21:08:38.335Z,98514.00
2022-08-31T21:11:12.952Z,98521.47
2022-08-31T21:13:39.745Z,98519.06
2022-08-31T21:16:06.861Z,98524.41
2022-08-31T21:18:34.912Z,98516.75
2022-08-31T21:21:08.451Z,98524.31
2022-08-31T21:23:36.872Z,98522.78
2022-08-31T21:26:05.026Z,98521.66
2022-08-31T21:28:31.834Z,98533.19
2022-08-31T21:31:15.753Z,98522.41
2022-08-31T21:33:46.407Z,98512.56
2022-08-31T21:36:15.679Z,98525.19
2022-08-31T21:38:43.128Z,98512.13
2022-08-31T21:41:11.506Z,98525.25
2022-08-31T21:43:39.083Z,98524.63
2022-08-31T21:46:07.057Z,98510.94
2022-08-31T21:48:35.185Z,98518.56
2022-08-31T21:51:21.502Z,98521.38
2022-08-31T21:53:51.800Z,98529.41
2022-08-31T21:56:20.171Z,98525.72
2022-08-31T21:58:47.905Z,98528.41
2022-08-31T22:01:18.562Z,98527.31
2022-08-31T22:03:49.521Z,98528.50
2022-08-31T22:06:22.336Z,98538.69
2022-08-31T22:09:02.069Z,98544.03
2022-08-31T22:11:32.217Z,98541.09
2022-08-31T22:13:59.491Z,98545.66
2022-08-31T22:16:27.815Z,98549.66
2022-08-31T22:19:01.772Z,98554.19
2022-08-31T22:21:32.252Z,98556.19
2022-08-31T22:24:04.417Z,98550.03
2022-08-31T22:26:34.539Z,98552.84
2022-08-31T22:29:01.311Z,98555.69
2022-08-31T22:31:28.225Z,98554.53
2022-08-31T22:33:55.035Z,98557.03
2022-08-31T22:36:31.449Z,98554.81
2022-08-31T22:39:12.871Z,98554.88
2022-08-31T22:41:41.492Z,98555.91
2022-08-31T22:44:16.368Z,98555.69
2022-08-31T22:46:43.526Z,98559.38
2022-08-31T22:49:11.142Z,98560.03
2022-08-31T22:51:40.857Z,98564.06
2022-08-31T22:54:10.427Z,98567.09
2022-08-31T22:56:39.046Z,98555.50
2022-08-31T22:59:09.873Z,98561.03
2022-08-31T23:01:42.256Z,98559.38
2022-08-31T23:04:10.235Z,98551.72
2022-08-31T23:06:38.008Z,98569.22
2022-08-31T23:09:10.618Z,98556.91
2022-08-31T23:11:38.469Z,98555.88
2022-08-31T23:14:10.235Z,98552.47
2022-08-31T23:16:40.409Z,98548.03
2022-08-31T23:19:20.178Z,98546.19
2022-08-31T23:21:53.034Z,98542.88
2022-08-31T23:24:28.738Z,98541.53
2022-08-31T23:27:04.135Z,98542.19
2022-08-31T23:29:45.752Z,98547.50
2022-08-31T23:32:13.482Z,98545.38
2022-08-31T23:34:41.983Z,98544.72
2022-08-31T23:37:10.510Z,98534.25
2022-08-31T23:39:40.477Z,98535.09
2022-08-31T23:42:07.645Z,98529.09
2022-08-31T23:44:36.224Z,98526.31
2022-08-31T23:47:03.053Z,98522.38
2022-08-31T23:49:29.858Z,98524.03
2022-08-31T23:51:56.572Z,98525.50
2022-08-31T23:54:23.370Z,98519.03
2022-08-31T23:56:52.337Z,98519.22
2022-08-31T23:59:19.949Z,98529.69
